Time;durP1;ratioP1;P1;durP2;ratioP2;P2;SDS_P1;SDS_P2;PMS_P1;PMS_P2;Temp;Humidity;BMP_temperature;BMP_pressure;BME280_temperature;BME280_humidity;BME280_pressure;Samples;Min_cycle;Max_cycle;Signal;HPM_P1;HPM_P2
2022/12/19 00:00:13;;;;;;;;;;;-1.20;84.80;;;;;;4995839;28;1057;-69
2022/12/19 00:02:41;;;;;;;;;;;-1.40;84.80;;;;;;4994368;28;1128;-70
2022/12/19 00:05:10;;;;;;;;;;;-1.40;84.60;;;;;;4994774;28;1582;-70
2022/12/19 00:07:37;;;;;;;;;;;-1.40;84.50;;;;;;4993905;28;1418;-70
2022/12/19 00:10:05;;;;;;;;;;;-1.50;84.90;;;;;;4994591;28;1914;-70
2022/12/19 00:12:33;;;;;;;;;;;-1.50;85.00;;;;;;4994422;28;1148;-74
2022/12/19 00:15:02;;;;;;;;;;;-1.50;85.30;;;;;;4995605;28;1261;-72
2022/12/19 00:17:30;;;;;;;;;;;-1.50;85.20;;;;;;4997959;28;1080;-73
2022/12/19 00:19:59;;;;;;;;;;;-1.50;85.20;;;;;;4996793;28;1419;-73
2022/12/19 00:22:27;;;;;;;;;;;-1.50;84.90;;;;;;4998819;28;1029;-74
2022/12/19 00:24:55;;;;;;;;;;;-1.50;84.80;;;;;;4999898;28;1303;-73
2022/12/19 00:27:22;;;;;;;;;;;-1.50;84.80;;;;;;4999638;28;1089;-73
2022/12/19 00:29:50;;;;;;;;;;;-1.50;85.00;;;;;;4998843;28;2005;-75
2022/12/19 00:32:19;;;;;;;;;;;-1.50;84.80;;;;;;4998861;28;1044;-74
2022/12/19 00:34:46;;;;;;;;;;;-1.50;84.60;;;;;;4998153;28;1712;-73
2022/12/19 00:37:14;;;;;;;;;;;-1.50;84.90;;;;;;4999505;28;1071;-70
2022/12/19 00:39:41;;;;;;;;;;;-1.50;85.10;;;;;;4999061;28;1176;-72
2022/12/19 00:42:09;;;;;;;;;;;-1.40;84.70;;;;;;4999050;28;1022;-71
2022/12/19 00:44:37;;;;;;;;;;;-1.40;84.80;;;;;;4998267;28;1345;-72
2022/12/19 00:47:04;;;;;;;;;;;-1.40;84.80;;;;;;4996356;28;1446;-73
2022/12/19 00:49:33;;;;;;;;;;;-1.40;84.90;;;;;;4998700;28;1088;-72
2022/12/19 00:52:01;;;;;;;;;;;-1.30;84.70;;;;;;4998427;28;1961;-72
2022/12/19 00:54:29;;;;;;;;;;;-1.30;84.50;;;;;;4996449;28;1296;-73
2022/12/19 00:56:57;;;;;;;;;;;-1.40;84.90;;;;;;4996770;28;1102;-73
2022/12/19 00:59:25;;;;;;;;;;;-1.30;84.60;;;;;;4996962;28;989;-73
2022/12/19 01:01:53;;;;;;;;;;;-1.30;84.60;;;;;;4996187;28;1558;-72
2022/12/19 01:04:21;;;;;;;;;;;-1.20;84.40;;;;;;4996024;28;1618;-71
2022/12/19 01:07:01;;;;;;;;;;;-1.40;84.40;;;;;;4995621;28;1041;-71
2022/12/19 01:09:30;;;;;;;;;;;-1.30;84.80;;;;;;4996417;28;1201;-71
2022/12/19 01:14:42;;;;;;;;;;;-1.40;85.10;;;;;;4996496;28;1342;-72
2022/12/19 01:17:10;;;;;;;;;;;-1.30;84.80;;;;;;4996090;28;1142;-72
2022/12/19 01:19:38;;;;;;;;;;;-1.30;84.60;;;;;;4998022;28;1356;-71
2022/12/19 01:22:12;;;;;;;;;;;-1.20;84.60;;;;;;4996325;28;1746;-71
2022/12/19 01:24:40;;;;;;;;;;;-1.30;84.30;;;;;;4995337;28;1369;-71
2022/12/19 01:27:08;;;;;;;;;;;-1.20;84.30;;;;;;4994581;28;1948;-71
2022/12/19 01:29:36;;;;;;;;;;;-1.20;84.50;;;;;;4994748;28;1090;-71
2022/12/19 01:32:19;;;;;;;;;;;-1.20;84.50;;;;;;4994150;28;1947;-72
2022/12/19 01:34:46;;;;;;;;;;;-1.20;84.20;;;;;;4995166;28;1354;-72
2022/12/19 01:37:19;;;;;;;;;;;-0.90;84.40;;;;;;4995270;28;1037;-75
2022/12/19 01:39:46;;;;;;;;;;;-1.30;84.40;;;;;;4994952;28;1066;-73
2022/12/19 01:42:15;;;;;;;;;;;-1.00;84.40;;;;;;4994534;28;1154;-72
2022/12/19 01:45:03;;;;;;;;;;;-1.10;84.10;;;;;;4994934;28;1453;-73
2022/12/19 01:47:32;;;;;;;;;;;-1.20;84.00;;;;;;4995097;28;993;-72
2022/12/19 01:50:01;;;;;;;;;;;-1.10;84.10;;;;;;4994473;28;1194;-72
2022/12/19 01:52:30;;;;;;;;;;;-1.20;84.10;;;;;;4995020;28;1984;-71
2022/12/19 01:54:58;;;;;;;;;;;-0.90;84.20;;;;;;4995101;28;1366;-71
2022/12/19 01:57:26;;;;;;;;;;;-1.20;84.30;;;;;;4995457;28;1045;-71
2022/12/19 01:59:56;;;;;;;;;;;-1.20;84.60;;;;;;4995615;28;1088;-73
2022/12/19 02:02:26;;;;;;;;;;;-1.20;84.60;;;;;;4993927;28;1103;-74
2022/12/19 02:04:54;;;;;;;;;;;-1.00;84.40;;;;;;4994039;28;1342;-73
2022/12/19 02:07:23;;;;;;;;;;;-0.90;84.10;;;;;;4994545;28;1100;-71
2022/12/19 02:09:56;;;;;;;;;;;-0.90;83.90;;;;;;4993702;28;1013;-72
2022/12/19 02:17:53;;;;;;;;;;;-1.00;83.70;;;;;;5105490;22;2147;-72
2022/12/19 02:20:38;;;;;;;;;;;-0.90;83.80;;;;;;5021123;28;2383;-72
2022/12/19 02:23:14;;;;;;;;;;;-0.90;83.80;;;;;;5024081;28;1295;-70
2022/12/19 02:25:54;;;;;;;;;;;-0.80;83.60;;;;;;5025985;28;1125;-71
2022/12/19 02:28:35;;;;;;;;;;;-0.90;83.80;;;;;;5027203;28;1431;-71
2022/12/19 02:31:07;;;;;;;;;;;-0.70;83.80;;;;;;5024664;28;1917;-71
2022/12/19 02:33:45;;;;;;;;;;;-0.80;83.80;;;;;;5024561;28;1283;-69
2022/12/19 02:36:16;;;;;;;;;;;-0.70;83.20;;;;;;5022829;28;1033;-72
2022/12/19 02:38:48;;;;;;;;;;;-0.70;83.70;;;;;;5016550;28;1044;-71
2022/12/19 02:41:20;;;;;;;;;;;-0.70;84.00;;;;;;5023625;28;1003;-73
2022/12/19 02:43:49;;;;;;;;;;;-0.60;83.40;;;;;;5016166;28;2449;-72
2022/12/19 02:46:27;;;;;;;;;;;-0.50;84.00;;;;;;5024234;28;1537;-72
2022/12/19 02:48:55;;;;;;;;;;;-0.50;84.10;;;;;;5017173;28;1008;-73
2022/12/19 02:51:22;;;;;;;;;;;-0.50;84.30;;;;;;5018351;28;2397;-73
2022/12/19 02:53:50;;;;;;;;;;;-0.40;84.80;;;;;;5016706;28;1276;-71
2022/12/19 02:56:21;;;;;;;;;;;-0.40;85.10;;;;;;5019374;28;1041;-72
2022/12/19 02:58:52;;;;;;;;;;;-0.40;85.20;;;;;;5016265;28;1092;-73
2022/12/19 03:01:26;;;;;;;;;;;-0.40;84.80;;;;;;5023133;28;1567;-72
2022/12/19 03:03:59;;;;;;;;;;;-0.40;85.30;;;;;;5019969;28;1237;-72
2022/12/19 03:06:31;;;;;;;;;;;-0.50;86.10;;;;;;5023996;28;1160;-73
2022/12/19 03:09:01;;;;;;;;;;;-0.40;86.00;;;;;;5026575;28;1157;-72
2022/12/19 03:11:32;;;;;;;;;;;-0.40;86.20;;;;;;5016214;28;2007;-71
2022/12/19 03:14:01;;;;;;;;;;;-0.40;87.10;;;;;;5019915;28;1732;-70
2022/12/19 03:16:29;;;;;;;;;;;-0.40;87.30;;;;;;5018478;28;1233;-72
2022/12/19 03:18:58;;;;;;;;;;;-0.50;88.20;;;;;;5016572;28;2295;-72
2022/12/19 03:21:28;;;;;;;;;;;-0.50;89.00;;;;;;5014253;28;1106;-73
2022/12/19 03:23:57;;;;;;;;;;;-0.50;89.20;;;;;;5016231;28;1326;-73
2022/12/19 03:26:27;;;;;;;;;;;-0.50;90.00;;;;;;5014522;28;1172;-71
2022/12/19 03:28:57;;;;;;;;;;;-0.50;90.20;;;;;;5016149;28;1376;-71
2022/12/19 03:31:27;;;;;;;;;;;-0.50;90.30;;;;;;5022739;28;1907;-71
2022/12/19 03:33:56;;;;;;;;;;;-0.50;90.40;;;;;;5019059;28;1283;-72
2022/12/19 03:36:28;;;;;;;;;;;-0.50;90.40;;;;;;5025294;28;1101;-71
2022/12/19 03:38:57;;;;;;;;;;;-0.50;90.70;;;;;;5022206;28;1515;-71
2022/12/19 03:44:08;;;;;;;;;;;-0.50;91.10;;;;;;5023907;28;1340;-71
2022/12/19 03:46:38;;;;;;;;;;;-0.40;91.40;;;;;;5021122;28;1022;-70
2022/12/19 03:49:06;;;;;;;;;;;-0.30;91.20;;;;;;5024144;28;986;-70
2022/12/19 03:51:40;;;;;;;;;;;-0.50;91.30;;;;;;5023424;28;1907;-68
2022/12/19 03:54:09;;;;;;;;;;;-0.40;91.60;;;;;;5014866;28;1295;-70
2022/12/19 03:56:42;;;;;;;;;;;-0.30;91.30;;;;;;5021544;28;1185;-68
2022/12/19 03:59:12;;;;;;;;;;;-0.30;91.40;;;;;;5025118;28;1080;-69
2022/12/19 04:01:41;;;;;;;;;;;-0.40;91.50;;;;;;5020805;28;1156;-69
2022/12/19 04:04:08;;;;;;;;;;;-0.30;91.70;;;;;;5016771;28;1288;-70
2022/12/19 04:06:38;;;;;;;;;;;-0.30;91.80;;;;;;5021201;28;1001;-71
2022/12/19 04:09:08;;;;;;;;;;;-0.30;91.90;;;;;;5016427;28;1017;-70
2022/12/19 04:11:38;;;;;;;;;;;-0.40;92.00;;;;;;5027189;28;1906;-71
2022/12/19 04:14:07;;;;;;;;;;;-0.30;91.90;;;;;;5023776;28;1343;-70
2022/12/19 04:16:38;;;;;;;;;;;-0.20;92.10;;;;;;5023274;28;1077;-72
2022/12/19 04:19:10;;;;;;;;;;;-0.20;91.80;;;;;;5025811;28;1013;-72
2022/12/19 04:21:43;;;;;;;;;;;-0.30;92.00;;;;;;5021368;28;959;-71
2022/12/19 04:24:13;;;;;;;;;;;-0.20;92.10;;;;;;5020240;28;1319;-71
2022/12/19 04:26:44;;;;;;;;;;;-0.30;92.10;;;;;;5015326;28;1068;-71
2022/12/19 04:29:13;;;;;;;;;;;-0.30;92.30;;;;;;5020760;28;990;-72
2022/12/19 04:31:41;;;;;;;;;;;-0.20;92.20;;;;;;5023224;28;1092;-72
2022/12/19 04:34:08;;;;;;;;;;;-0.30;92.20;;;;;;5020367;28;1914;-73
2022/12/19 04:36:36;;;;;;;;;;;-0.20;91.90;;;;;;5014639;28;1572;-72
2022/12/19 04:39:05;;;;;;;;;;;-0.20;92.00;;;;;;5021425;28;2033;-73
2022/12/19 04:41:32;;;;;;;;;;;-0.10;91.80;;;;;;5026660;28;1157;-73
2022/12/19 04:44:00;;;;;;;;;;;-0.10;92.00;;;;;;5020863;28;1285;-71
2022/12/19 04:46:28;;;;;;;;;;;-0.20;92.00;;;;;;5022854;28;1001;-72
2022/12/19 04:48:55;;;;;;;;;;;-0.20;92.20;;;;;;5026071;28;2306;-71
2022/12/19 04:51:23;;;;;;;;;;;-0.10;92.20;;;;;;5022503;28;1005;-72
2022/12/19 04:53:50;;;;;;;;;;;-0.10;92.20;;;;;;5020855;28;1993;-71
2022/12/19 04:56:19;;;;;;;;;;;-0.10;92.40;;;;;;5020676;28;1037;-73
2022/12/19 04:58:47;;;;;;;;;;;-0.10;92.20;;;;;;5022980;28;1421;-72
2022/12/19 05:01:15;;;;;;;;;;;-0.10;92.30;;;;;;5016235;28;1591;-72
2022/12/19 05:03:43;;;;;;;;;;;-0.10;92.40;;;;;;5026536;28;1339;-72
2022/12/19 05:06:11;;;;;;;;;;;0.00;92.50;;;;;;5027361;28;1241;-71
2022/12/19 05:08:40;;;;;;;;;;;0.00;92.40;;;;;;5027145;28;1010;-71
2022/12/19 05:11:08;;;;;;;;;;;0.00;92.50;;;;;;5026384;28;1025;-72
2022/12/19 05:13:43;;;;;;;;;;;0.10;92.70;;;;;;5027698;28;1926;-72
2022/12/19 05:16:12;;;;;;;;;;;0.00;92.70;;;;;;5024248;28;1045;-72
2022/12/19 05:18:40;;;;;;;;;;;0.10;92.70;;;;;;5023500;28;2393;-73
2022/12/19 05:21:07;;;;;;;;;;;0.30;92.30;;;;;;5023944;28;1157;-73
2022/12/19 05:23:35;;;;;;;;;;;0.20;92.50;;;;;;5024877;28;1271;-72
2022/12/19 05:26:03;;;;;;;;;;;0.10;92.80;;;;;;5021787;28;1168;-71
2022/12/19 05:28:31;;;;;;;;;;;0.00;93.10;;;;;;5026097;28;974;-71
2022/12/19 05:31:04;;;;;;;;;;;0.10;93.40;;;;;;5026933;28;1145;-72
2022/12/19 05:33:32;;;;;;;;;;;0.10;93.60;;;;;;5023731;28;1914;-71
2022/12/19 05:35:59;;;;;;;;;;;0.00;93.80;;;;;;5027697;28;1100;-71
2022/12/19 05:38:27;;;;;;;;;;;0.10;93.60;;;;;;5026811;28;1446;-71
2022/12/19 05:40:55;;;;;;;;;;;0.20;93.90;;;;;;5026216;28;1064;-69
2022/12/19 05:43:23;;;;;;;;;;;0.30;93.80;;;;;;5018473;28;1253;-72
2022/12/19 05:45:50;;;;;;;;;;;0.30;93.90;;;;;;5029328;28;1064;-71
2022/12/19 05:48:19;;;;;;;;;;;0.30;93.90;;;;;;5020482;28;1277;-73
2022/12/19 05:50:48;;;;;;;;;;;0.40;93.90;;;;;;5018002;28;1053;-71
2022/12/19 05:53:16;;;;;;;;;;;0.40;94.00;;;;;;5019309;28;2588;-70
2022/12/19 05:55:49;;;;;;;;;;;0.50;94.10;;;;;;5018927;28;1548;-70
2022/12/19 05:58:17;;;;;;;;;;;0.50;93.70;;;;;;5027519;28;1037;-72
2022/12/19 06:00:44;;;;;;;;;;;0.60;93.90;;;;;;5027927;28;1005;-71
2022/12/19 06:03:12;;;;;;;;;;;0.60;93.70;;;;;;5024218;28;1246;-71
2022/12/19 06:05:42;;;;;;;;;;;0.60;94.00;;;;;;5024497;28;1069;-71
2022/12/19 06:08:10;;;;;;;;;;;0.70;94.00;;;;;;5016251;28;1010;-70
2022/12/19 06:10:37;;;;;;;;;;;0.70;94.00;;;;;;5020029;28;1022;-72
2022/12/19 06:13:05;;;;;;;;;;;0.70;94.00;;;;;;5032882;28;1950;-70
2022/12/19 06:15:33;;;;;;;;;;;0.80;94.20;;;;;;5016916;28;1022;-70
2022/12/19 06:18:00;;;;;;;;;;;0.70;94.20;;;;;;5023710;28;1665;-72
2022/12/19 06:20:28;;;;;;;;;;;0.80;94.40;;;;;;5025079;28;1144;-71
2022/12/19 06:22:57;;;;;;;;;;;0.90;94.80;;;;;;5019451;28;1177;-71
2022/12/19 06:25:24;;;;;;;;;;;0.90;95.00;;;;;;5019869;28;1147;-71
2022/12/19 06:27:52;;;;;;;;;;;0.90;95.20;;;;;;5022839;28;1236;-73
2022/12/19 06:30:20;;;;;;;;;;;0.80;95.70;;;;;;5022866;28;1065;-72
2022/12/19 06:32:47;;;;;;;;;;;0.80;95.60;;;;;;5021597;28;1156;-70
2022/12/19 06:35:15;;;;;;;;;;;0.80;95.80;;;;;;5026891;28;1969;-73
2022/12/19 06:37:42;;;;;;;;;;;0.90;95.90;;;;;;5022737;28;1029;-72
2022/12/19 06:42:21;;;;;;;;;;;1.00;95.80;;;;;;5020967;28;1479;-73
2022/12/19 06:42:59;;;;;;;;;;;1.10;95.90;;;;;;5020264;28;1386;-72
2022/12/19 06:45:26;;;;;;;;;;;1.00;96.00;;;;;;5023974;28;1563;-72
2022/12/19 06:47:55;;;;;;;;;;;1.20;95.70;;;;;;5025146;28;1077;-73
2022/12/19 06:50:23;;;;;;;;;;;1.10;95.50;;;;;;5024302;28;2386;-72
2022/12/19 06:52:50;;;;;;;;;;;1.10;96.20;;;;;;5019646;28;2481;-74
2022/12/19 06:55:19;;;;;;;;;;;1.20;95.80;;;;;;5022846;28;1977;-74
2022/12/19 06:57:47;;;;;;;;;;;1.20;96.00;;;;;;5024309;28;993;-73
2022/12/19 07:00:15;;;;;;;;;;;1.30;95.70;;;;;;5022271;28;2338;-72
2022/12/19 07:02:44;;;;;;;;;;;1.20;95.90;;;;;;5023686;28;1225;-72
2022/12/19 07:05:12;;;;;;;;;;;1.20;95.80;;;;;;5028250;28;1475;-73
2022/12/19 07:07:41;;;;;;;;;;;1.20;95.80;;;;;;5016773;28;1913;-73
2022/12/19 07:10:09;;;;;;;;;;;1.20;95.60;;;;;;5023911;28;1870;-71
2022/12/19 07:12:38;;;;;;;;;;;1.20;95.90;;;;;;5021957;28;2310;-67
2022/12/19 07:15:06;;;;;;;;;;;1.40;95.90;;;;;;5022417;28;2040;-69
2022/12/19 07:17:33;;;;;;;;;;;1.30;95.70;;;;;;5023531;28;1065;-69
2022/12/19 07:20:01;;;;;;;;;;;1.40;95.80;;;;;;5015726;28;1073;-69
2022/12/19 07:22:31;;;;;;;;;;;1.40;96.10;;;;;;5014789;28;1038;-69
2022/12/19 07:25:00;;;;;;;;;;;1.30;96.10;;;;;;5021475;28;1399;-69
2022/12/19 07:27:28;;;;;;;;;;;1.30;96.10;;;;;;5021931;28;1060;-69
2022/12/19 07:30:04;;;;;;;;;;;1.30;96.00;;;;;;5025004;28;1052;-72
2022/12/19 07:32:31;;;;;;;;;;;1.50;96.00;;;;;;5022038;28;1018;-71
2022/12/19 07:34:59;;;;;;;;;;;1.30;96.00;;;;;;5024614;28;2580;-71
2022/12/19 07:37:27;;;;;;;;;;;1.30;96.20;;;;;;5017151;28;1184;-71
2022/12/19 07:39:54;;;;;;;;;;;1.30;96.40;;;;;;5019245;28;1030;-71
2022/12/19 07:42:22;;;;;;;;;;;1.30;96.60;;;;;;5016430;28;1076;-69
2022/12/19 07:44:52;;;;;;;;;;;1.40;96.90;;;;;;5025478;28;1304;-68
2022/12/19 07:47:21;;;;;;;;;;;1.50;96.80;;;;;;5019512;28;1037;-68
2022/12/19 07:49:48;;;;;;;;;;;1.50;97.00;;;;;;5026414;28;1069;-66
2022/12/19 07:52:16;;;;;;;;;;;1.60;97.10;;;;;;5025565;28;1013;-67
2022/12/19 07:54:44;;;;;;;;;;;1.60;97.20;;;;;;5022596;28;1922;-68
2022/12/19 07:57:12;;;;;;;;;;;1.60;97.50;;;;;;5023097;28;1069;-68
2022/12/19 07:59:39;;;;;;;;;;;1.50;97.80;;;;;;5020755;28;990;-68
2022/12/19 08:02:07;;;;;;;;;;;1.60;98.40;;;;;;5025637;28;1013;-69
2022/12/19 08:04:36;;;;;;;;;;;1.60;98.50;;;;;;5015929;28;1334;-70
2022/12/19 08:07:04;;;;;;;;;;;1.60;98.70;;;;;;5015527;28;979;-69
2022/12/19 08:09:31;;;;;;;;;;;1.70;98.70;;;;;;5023226;28;1048;-68
2022/12/19 08:11:59;;;;;;;;;;;1.60;99.00;;;;;;5029189;28;1532;-69
2022/12/19 08:14:27;;;;;;;;;;;1.60;99.40;;;;;;5025669;28;1914;-69
2022/12/19 08:16:54;;;;;;;;;;;1.70;99.60;;;;;;5021886;28;2381;-68
2022/12/19 08:19:44;;;;;;;;;;;1.80;99.90;;;;;;5016566;28;2492;-68
2022/12/19 08:22:11;;;;;;;;;;;1.70;99.90;;;;;;5027451;28;1107;-69
2022/12/19 08:24:39;;;;;;;;;;;1.60;99.90;;;;;;5021234;28;2365;-69
2022/12/19 08:27:07;;;;;;;;;;;1.60;99.90;;;;;;5016745;28;2399;-69
2022/12/19 08:29:34;;;;;;;;;;;1.60;99.90;;;;;;5019227;28;2414;-70
2022/12/19 08:32:02;;;;;;;;;;;1.60;99.90;;;;;;5020726;28;2299;-69
2022/12/19 08:34:30;;;;;;;;;;;1.70;99.90;;;;;;5025715;28;1899;-69
2022/12/19 08:36:59;;;;;;;;;;;1.70;99.90;;;;;;5019224;28;1017;-68
2022/12/19 08:39:26;;;;;;;;;;;1.80;99.90;;;;;;5026504;28;1082;-73
2022/12/19 08:41:54;;;;;;;;;;;1.80;99.90;;;;;;5027687;28;1164;-70
2022/12/19 08:44:22;;;;;;;;;;;1.80;99.90;;;;;;5029014;28;1638;-66
2022/12/19 08:46:49;;;;;;;;;;;1.80;99.90;;;;;;5025787;28;1085;-70
2022/12/19 08:49:17;;;;;;;;;;;1.90;99.90;;;;;;5019741;28;1593;-71
2022/12/19 08:51:45;;;;;;;;;;;1.90;99.90;;;;;;5019078;28;1045;-71
2022/12/19 08:54:14;;;;;;;;;;;1.90;99.90;;;;;;5023698;28;1899;-68
2022/12/19 08:56:41;;;;;;;;;;;1.80;99.90;;;;;;5025994;28;1033;-69
2022/12/19 08:59:13;;;;;;;;;;;1.90;99.90;;;;;;5024994;28;1249;-69
2022/12/19 09:01:49;;;;;;;;;;;2.00;99.90;;;;;;5024598;28;1077;-69
2022/12/19 09:04:17;;;;;;;;;;;1.90;99.90;;;;;;5026215;28;2260;-70
2022/12/19 09:07:04;;;;;;;;;;;1.90;99.90;;;;;;5025105;28;1557;-69
2022/12/19 09:09:34;;;;;;;;;;;1.90;99.90;;;;;;5025357;28;1666;-68
2022/12/19 09:12:02;;;;;;;;;;;1.90;99.90;;;;;;5019863;28;942;-69
2022/12/19 09:14:32;;;;;;;;;;;2.00;99.90;;;;;;5027226;28;1926;-68
2022/12/19 09:17:00;;;;;;;;;;;2.00;99.90;;;;;;5017693;28;1013;-70
2022/12/19 09:19:30;;;;;;;;;;;1.90;99.90;;;;;;5021785;28;1958;-69
2022/12/19 09:21:57;;;;;;;;;;;2.00;99.90;;;;;;5017126;28;1093;-69
2022/12/19 09:24:25;;;;;;;;;;;2.10;99.90;;;;;;5030506;28;1387;-69
2022/12/19 09:26:54;;;;;;;;;;;2.00;99.90;;;;;;5030427;28;1036;-69
2022/12/19 09:29:22;;;;;;;;;;;2.00;99.90;;;;;;5024166;28;1107;-66
2022/12/19 09:31:50;;;;;;;;;;;1.90;99.90;;;;;;5025357;28;2804;-69
2022/12/19 09:34:23;;;;;;;;;;;1.90;99.90;;;;;;5026316;28;1522;-69
2022/12/19 09:36:59;;;;;;;;;;;2.00;99.90;;;;;;5028897;28;1134;-68
2022/12/19 09:39:27;;;;;;;;;;;2.10;99.90;;;;;;5028211;28;1119;-69
2022/12/19 09:42:04;;;;;;;;;;;1.90;99.90;;;;;;5026662;28;1405;-69
2022/12/19 09:44:41;;;;;;;;;;;2.00;99.90;;;;;;5025615;28;1398;-69
2022/12/19 09:47:12;;;;;;;;;;;2.10;99.90;;;;;;5028498;28;1557;-69
2022/12/19 09:49:41;;;;;;;;;;;2.10;99.90;;;;;;5027035;28;1182;-71
2022/12/19 09:52:13;;;;;;;;;;;2.10;99.90;;;;;;5027439;28;1250;-69
2022/12/19 09:54:43;;;;;;;;;;;2.10;99.90;;;;;;5025472;28;1902;-70
2022/12/19 09:57:13;;;;;;;;;;;2.20;99.90;;;;;;5026167;28;2070;-69
2022/12/19 09:59:43;;;;;;;;;;;2.30;99.90;;;;;;5024354;28;2404;-69
2022/12/19 10:02:31;;;;;;;;;;;2.20;99.90;;;;;;5021532;28;1100;-69
2022/12/19 10:05:03;;;;;;;;;;;2.20;99.90;;;;;;5025490;28;1387;-72
2022/12/19 10:07:51;;;;;;;;;;;2.20;99.90;;;;;;5025994;28;1628;-71
2022/12/19 10:10:42;;;;;;;;;;;2.30;99.90;;;;;;5025594;28;1030;-72
2022/12/19 10:13:36;;;;;;;;;;;2.40;99.90;;;;;;5030251;28;1728;-72
2022/12/19 10:16:07;;;;;;;;;;;2.40;99.90;;;;;;5024662;28;1918;-71
2022/12/19 10:18:39;;;;;;;;;;;2.50;99.90;;;;;;5024816;28;1529;-70
2022/12/19 10:21:11;;;;;;;;;;;2.50;99.90;;;;;;5031138;28;1194;-68
2022/12/19 10:24:00;;;;;;;;;;;2.60;99.90;;;;;;5027396;28;2023;-69
2022/12/19 10:26:30;;;;;;;;;;;2.60;99.90;;;;;;5021428;28;2266;-69
2022/12/19 10:29:06;;;;;;;;;;;2.50;99.90;;;;;;5022677;28;2378;-68
2022/12/19 10:31:36;;;;;;;;;;;2.50;99.90;;;;;;5025367;28;1290;-69
2022/12/19 10:34:11;;;;;;;;;;;2.70;99.90;;;;;;5024693;28;1350;-68
2022/12/19 10:36:42;;;;;;;;;;;2.70;99.90;;;;;;5025818;28;1985;-69
2022/12/19 10:39:31;;;;;;;;;;;2.70;99.90;;;;;;5024976;28;2180;-69
2022/12/19 10:42:02;;;;;;;;;;;2.70;99.90;;;;;;5026912;28;1341;-69
2022/12/19 10:44:34;;;;;;;;;;;2.80;99.90;;;;;;5027945;28;1340;-68
2022/12/19 10:47:02;;;;;;;;;;;2.70;99.90;;;;;;5026604;28;1088;-68
2022/12/19 10:49:31;;;;;;;;;;;2.90;99.90;;;;;;5027236;28;1092;-69
2022/12/19 10:51:59;;;;;;;;;;;2.70;99.90;;;;;;5025123;28;2223;-70
2022/12/19 10:54:37;;;;;;;;;;;2.80;99.90;;;;;;5020767;28;1416;-70
2022/12/19 10:57:24;;;;;;;;;;;2.90;99.90;;;;;;5021607;28;1910;-71
2022/12/19 10:59:56;;;;;;;;;;;3.00;99.90;;;;;;5021178;28;1517;-70
2022/12/19 11:02:29;;;;;;;;;;;2.90;99.90;;;;;;5017314;28;1076;-70
2022/12/19 11:04:57;;;;;;;;;;;2.90;99.90;;;;;;5021839;28;2089;-70
2022/12/19 11:07:25;;;;;;;;;;;3.00;99.90;;;;;;5024072;28;2429;-69
2022/12/19 11:09:52;;;;;;;;;;;2.90;99.90;;;;;;5016981;28;1076;-70
2022/12/19 11:12:50;;;;;;;;;;;2.90;99.90;;;;;;5023706;28;1589;-70
2022/12/19 11:15:45;;;;;;;;;;;3.30;99.90;;;;;;5024275;28;1991;-70
2022/12/19 11:18:34;;;;;;;;;;;3.00;99.90;;;;;;5022651;28;1724;-69
2022/12/19 11:21:25;;;;;;;;;;;3.00;99.90;;;;;;5021864;28;1601;-69
2022/12/19 11:24:20;;;;;;;;;;;3.00;99.90;;;;;;5021393;28;2015;-68
2022/12/19 11:27:28;;;;;;;;;;;3.00;99.90;;;;;;5024369;28;2145;-69
2022/12/19 11:30:22;;;;;;;;;;;3.20;99.90;;;;;;5020498;28;1111;-69
2022/12/19 11:33:14;;;;;;;;;;;3.30;99.90;;;;;;5020275;28;1408;-69
2022/12/19 11:35:46;;;;;;;;;;;3.20;99.90;;;;;;5021324;28;1927;-70
2022/12/19 11:38:16;;;;;;;;;;;3.30;99.90;;;;;;5017515;28;2283;-69
2022/12/19 11:40:45;;;;;;;;;;;3.40;99.90;;;;;;5022106;28;1025;-68
2022/12/19 11:43:21;;;;;;;;;;;3.20;99.90;;;;;;5024384;28;1707;-71
2022/12/19 11:46:12;;;;;;;;;;;3.30;99.90;;;;;;5022505;28;1218;-70
2022/12/19 11:48:52;;;;;;;;;;;3.30;99.90;;;;;;5023255;28;1254;-69
2022/12/19 11:51:22;;;;;;;;;;;3.30;99.90;;;;;;5018177;28;1098;-69
2022/12/19 11:53:54;;;;;;;;;;;3.40;99.90;;;;;;5020158;28;1253;-69
2022/12/19 11:56:23;;;;;;;;;;;3.40;99.90;;;;;;5024626;28;1997;-69
2022/12/19 11:58:52;;;;;;;;;;;3.40;99.90;;;;;;5020443;28;997;-70
2022/12/19 12:01:23;;;;;;;;;;;3.50;99.90;;;;;;5014961;28;985;-69
2022/12/19 12:04:11;;;;;;;;;;;3.50;99.90;;;;;;5023205;28;1647;-69
2022/12/19 12:06:45;;;;;;;;;;;3.50;99.90;;;;;;5000018;28;1250;-69
2022/12/19 12:09:16;;;;;;;;;;;3.60;99.90;;;;;;5025512;28;1362;-70
2022/12/19 12:12:10;;;;;;;;;;;3.50;99.90;;;;;;5024676;28;2279;-70
2022/12/19 12:15:04;;;;;;;;;;;3.90;99.90;;;;;;5027084;28;2603;-69
2022/12/19 12:17:57;;;;;;;;;;;3.90;99.90;;;;;;5025212;28;1922;-70
2022/12/19 12:20:51;;;;;;;;;;;3.70;99.90;;;;;;5029203;28;1586;-68
2022/12/19 12:23:48;;;;;;;;;;;3.90;99.90;;;;;;5030454;28;1562;-68
2022/12/19 12:26:37;;;;;;;;;;;4.00;99.90;;;;;;5025162;28;1695;-69
2022/12/19 12:29:27;;;;;;;;;;;3.80;99.90;;;;;;5024613;28;1587;-69
2022/12/19 12:32:20;;;;;;;;;;;3.90;99.90;;;;;;5029140;28;1677;-69
2022/12/19 12:35:17;;;;;;;;;;;3.90;99.90;;;;;;5028459;28;2349;-69
2022/12/19 12:38:16;;;;;;;;;;;3.90;99.90;;;;;;5028133;28;1906;-69
2022/12/19 12:40:59;;;;;;;;;;;3.90;99.90;;;;;;5024493;28;1097;-69
2022/12/19 12:43:34;;;;;;;;;;;4.00;99.90;;;;;;5026974;28;1298;-69
2022/12/19 12:46:03;;;;;;;;;;;4.00;99.90;;;;;;5026064;28;1017;-70
2022/12/19 12:48:32;;;;;;;;;;;4.10;99.90;;;;;;5027943;28;1045;-70
2022/12/19 12:51:01;;;;;;;;;;;4.10;99.90;;;;;;5024328;28;1125;-69
2022/12/19 12:53:32;;;;;;;;;;;4.20;99.90;;;;;;5029343;28;1288;-69
2022/12/19 12:56:03;;;;;;;;;;;4.20;99.90;;;;;;5024693;28;1026;-70
2022/12/19 12:58:52;;;;;;;;;;;4.20;99.90;;;;;;5023009;28;1907;-69
2022/12/19 13:01:30;;;;;;;;;;;4.10;99.90;;;;;;5025856;28;1199;-70
2022/12/19 13:04:00;;;;;;;;;;;4.20;99.90;;;;;;5028281;28;1235;-69
2022/12/19 13:06:32;;;;;;;;;;;4.40;99.90;;;;;;5017406;28;994;-70
2022/12/19 13:09:02;;;;;;;;;;;4.20;99.90;;;;;;5022116;28;1264;-69
2022/12/19 13:14:45;;;;;;;;;;;4.30;99.90;;;;;;5030376;28;1359;-69
2022/12/19 13:17:17;;;;;;;;;;;4.40;99.90;;;;;;5028157;28;1915;-70
2022/12/19 13:19:52;;;;;;;;;;;4.40;99.90;;;;;;5023486;28;1392;-71
2022/12/19 13:22:22;;;;;;;;;;;4.50;99.90;;;;;;5025629;28;1011;-70
2022/12/19 13:24:50;;;;;;;;;;;4.50;99.90;;;;;;5018840;28;1267;-70
2022/12/19 13:27:36;;;;;;;;;;;4.60;99.90;;;;;;5027639;28;2221;-71
2022/12/19 13:30:14;;;;;;;;;;;4.50;99.90;;;;;;5029134;28;1041;-70
2022/12/19 13:33:15;;;;;;;;;;;4.60;99.90;;;;;;5025132;28;1505;-70
2022/12/19 13:35:43;;;;;;;;;;;4.60;99.90;;;;;;4964728;28;1050;-69
2022/12/19 13:38:31;;;;;;;;;;;4.60;99.90;;;;;;4963429;28;1887;-69
2022/12/19 13:44:11;;;;;;;;;;;4.70;99.90;;;;;;5024969;28;1438;-70
2022/12/19 13:46:41;;;;;;;;;;;4.70;99.90;;;;;;5023371;28;1147;-70
2022/12/19 13:49:13;;;;;;;;;;;4.70;99.90;;;;;;5024998;28;1074;-70
2022/12/19 13:51:42;;;;;;;;;;;4.80;99.90;;;;;;5027381;28;1574;-71
2022/12/19 13:54:19;;;;;;;;;;;4.80;99.90;;;;;;5025010;28;1259;-70
2022/12/19 13:56:47;;;;;;;;;;;4.90;99.90;;;;;;5016311;28;1906;-71
2022/12/19 13:59:15;;;;;;;;;;;4.90;99.90;;;;;;5021471;28;1060;-70
2022/12/19 14:01:44;;;;;;;;;;;4.90;99.90;;;;;;5024764;28;1516;-71
2022/12/19 14:04:13;;;;;;;;;;;5.00;99.90;;;;;;5023169;28;1453;-70
2022/12/19 14:06:41;;;;;;;;;;;5.10;99.90;;;;;;5016237;28;1077;-72
2022/12/19 14:09:19;;;;;;;;;;;5.10;99.90;;;;;;5022632;28;1429;-72
2022/12/19 14:15:12;;;;;;;;;;;5.00;99.90;;;;;;5026037;28;1578;-70
2022/12/19 14:15:19;;;;;;;;;;;5.00;99.90;;;;;;5024202;28;2550;-70
2022/12/19 14:17:49;;;;;;;;;;;5.10;99.90;;;;;;5020861;28;1902;-69
2022/12/19 14:20:20;;;;;;;;;;;5.20;99.90;;;;;;5022038;28;1001;-70
2022/12/19 14:23:10;;;;;;;;;;;5.30;99.90;;;;;;5025360;28;1736;-71
2022/12/19 14:25:40;;;;;;;;;;;5.30;99.90;;;;;;5024473;28;1480;-71
2022/12/19 14:28:33;;;;;;;;;;;5.30;99.90;;;;;;5021895;28;1619;-70
2022/12/19 14:31:03;;;;;;;;;;;5.40;99.90;;;;;;5024360;28;1540;-71
2022/12/19 14:33:33;;;;;;;;;;;5.40;99.90;;;;;;5025069;28;1483;-71
2022/12/19 14:36:21;;;;;;;;;;;5.40;99.90;;;;;;5025909;28;1270;-71
2022/12/19 14:38:55;;;;;;;;;;;5.50;99.90;;;;;;5026649;28;1967;-72
2022/12/19 14:44:42;;;;;;;;;;;5.40;99.90;;;;;;5021835;28;1276;-71
2022/12/19 14:47:33;;;;;;;;;;;5.50;99.90;;;;;;5026062;28;1585;-70
2022/12/19 14:50:30;;;;;;;;;;;5.60;99.90;;;;;;5027956;28;1649;-71
2022/12/19 14:53:19;;;;;;;;;;;5.70;99.90;;;;;;5024901;28;1597;-70
2022/12/19 14:56:08;;;;;;;;;;;6.00;99.90;;;;;;5021101;28;1746;-75
2022/12/19 14:58:57;;;;;;;;;;;6.00;99.90;;;;;;5022764;28;2000;-70
2022/12/19 15:01:25;;;;;;;;;;;6.10;99.90;;;;;;5026890;28;1073;-70
2022/12/19 15:03:56;;;;;;;;;;;6.20;99.90;;;;;;5028241;28;1314;-71
2022/12/19 15:06:46;;;;;;;;;;;6.40;99.90;;;;;;5021546;28;1616;-70
2022/12/19 15:09:36;;;;;;;;;;;6.40;99.90;;;;;;5027980;28;2108;-69
2022/12/19 15:15:39;;;;;;;;;;;6.50;99.90;;;;;;5023861;28;1816;-70
2022/12/19 15:18:17;;;;;;;;;;;6.50;99.90;;;;;;5026821;28;1903;-71
2022/12/19 15:20:47;;;;;;;;;;;6.60;99.90;;;;;;5027254;28;1098;-71
2022/12/19 15:23:16;;;;;;;;;;;6.60;99.90;;;;;;5027888;28;1647;-71
2022/12/19 15:25:49;;;;;;;;;;;6.60;99.90;;;;;;5024703;28;1159;-70
2022/12/19 15:28:37;;;;;;;;;;;6.60;99.90;;;;;;5023270;28;1395;-71
2022/12/19 15:31:06;;;;;;;;;;;6.70;99.90;;;;;;5024489;28;1104;-70
2022/12/19 15:33:34;;;;;;;;;;;6.70;99.90;;;;;;5022887;28;1501;-71